sensor_id;sensor_type;location;lat;lon;timestamp;P1;durP1;ratioP1;P2;durP2;ratioP2
16892;SDS011;8563;52.242;9.098;2023-03-31T00:02:15;5.23;;;1.70;;
16892;SDS011;8563;52.242;9.098;2023-03-31T00:04:51;6.33;;;1.70;;
16892;SDS011;8563;52.242;9.098;2023-03-31T00:07:23;6.27;;;2.00;;
16892;SDS011;8563;52.242;9.098;2023-03-31T00:09:56;6.83;;;2.00;;
16892;SDS011;8563;52.242;9.098;2023-03-31T00:12:31;6.17;;;1.93;;
16892;SDS011;8563;52.242;9.098;2023-03-31T00:15:05;5.30;;;1.77;;
16892;SDS011;8563;52.242;9.098;2023-03-31T00:17:37;5.40;;;2.00;;
16892;SDS011;8563;52.242;9.098;2023-03-31T00:20:09;4.93;;;1.60;;
16892;SDS011;8563;52.242;9.098;2023-03-31T00:22:42;5.47;;;1.90;;
16892;SDS011;8563;52.242;9.098;2023-03-31T00:25:15;4.30;;;1.43;;
16892;SDS011;8563;52.242;9.098;2023-03-31T00:27:48;6.73;;;2.23;;
16892;SDS011;8563;52.242;9.098;2023-03-31T00:30:23;4.90;;;1.73;;
16892;SDS011;8563;52.242;9.098;2023-03-31T00:32:55;7.40;;;1.50;;
16892;SDS011;8563;52.242;9.098;2023-03-31T00:35:27;7.63;;;2.03;;
16892;SDS011;8563;52.242;9.098;2023-03-31T00:38:00;4.30;;;1.50;;
16892;SDS011;8563;52.242;9.098;2023-03-31T00:40:32;4.43;;;1.77;;
16892;SDS011;8563;52.242;9.098;2023-03-31T00:43:04;2.83;;;1.20;;
16892;SDS011;8563;52.242;9.098;2023-03-31T00:45:54;3.13;;;1.27;;
16892;SDS011;8563;52.242;9.098;2023-03-31T00:48:32;5.27;;;1.63;;
16892;SDS011;8563;52.242;9.098;2023-03-31T00:51:06;4.60;;;1.27;;
16892;SDS011;8563;52.242;9.098;2023-03-31T00:53:39;3.20;;;1.37;;
16892;SDS011;8563;52.242;9.098;2023-03-31T00:56:12;4.60;;;1.20;;
16892;SDS011;8563;52.242;9.098;2023-03-31T00:58:46;6.53;;;1.47;;
16892;SDS011;8563;52.242;9.098;2023-03-31T01:01:20;5.90;;;1.40;;
16892;SDS011;8563;52.242;9.098;2023-03-31T01:03:54;3.73;;;1.40;;
16892;SDS011;8563;52.242;9.098;2023-03-31T01:06:28;3.97;;;1.20;;
16892;SDS011;8563;52.242;9.098;2023-03-31T01:09:01;7.90;;;1.70;;
16892;SDS011;8563;52.242;9.098;2023-03-31T01:11:36;4.00;;;1.30;;
16892;SDS011;8563;52.242;9.098;2023-03-31T01:14:08;3.80;;;1.33;;
16892;SDS011;8563;52.242;9.098;2023-03-31T01:16:42;5.17;;;1.50;;
16892;SDS011;8563;52.242;9.098;2023-03-31T01:19:16;5.87;;;1.73;;
16892;SDS011;8563;52.242;9.098;2023-03-31T01:22:02;5.30;;;1.47;;
16892;SDS011;8563;52.242;9.098;2023-03-31T01:28:17;4.10;;;1.30;;
16892;SDS011;8563;52.242;9.098;2023-03-31T01:31:11;5.33;;;1.60;;
16892;SDS011;8563;52.242;9.098;2023-03-31T01:43:32;9.10;;;1.90;;
16892;SDS011;8563;52.242;9.098;2023-03-31T01:46:12;3.83;;;1.50;;
16892;SDS011;8563;52.242;9.098;2023-03-31T01:48:53;5.03;;;1.40;;
16892;SDS011;8563;52.242;9.098;2023-03-31T01:51:31;4.43;;;1.70;;
16892;SDS011;8563;52.242;9.098;2023-03-31T01:54:07;2.60;;;1.20;;
16892;SDS011;8563;52.242;9.098;2023-03-31T01:56:45;4.93;;;1.50;;
16892;SDS011;8563;52.242;9.098;2023-03-31T01:59:21;4.17;;;1.23;;
16892;SDS011;8563;52.242;9.098;2023-03-31T02:01:58;3.67;;;1.40;;
16892;SDS011;8563;52.242;9.098;2023-03-31T02:04:37;4.60;;;1.27;;
16892;SDS011;8563;52.242;9.098;2023-03-31T02:07:14;4.83;;;1.50;;
16892;SDS011;8563;52.242;9.098;2023-03-31T02:09:50;4.83;;;1.40;;
16892;SDS011;8563;52.242;9.098;2023-03-31T02:12:30;4.97;;;1.60;;
16892;SDS011;8563;52.242;9.098;2023-03-31T02:15:04;5.00;;;1.60;;
16892;SDS011;8563;52.242;9.098;2023-03-31T02:17:40;3.33;;;1.23;;
16892;SDS011;8563;52.242;9.098;2023-03-31T02:20:17;4.03;;;1.17;;
16892;SDS011;8563;52.242;9.098;2023-03-31T02:22:52;4.03;;;1.27;;
16892;SDS011;8563;52.242;9.098;2023-03-31T02:25:27;5.57;;;1.40;;
16892;SDS011;8563;52.242;9.098;2023-03-31T02:28:05;4.73;;;1.53;;
16892;SDS011;8563;52.242;9.098;2023-03-31T02:30:42;4.20;;;1.27;;
16892;SDS011;8563;52.242;9.098;2023-03-31T02:33:19;7.47;;;1.97;;
16892;SDS011;8563;52.242;9.098;2023-03-31T02:35:51;5.97;;;1.20;;
16892;SDS011;8563;52.242;9.098;2023-03-31T02:38:25;4.47;;;1.60;;
16892;SDS011;8563;52.242;9.098;2023-03-31T02:40:58;3.10;;;1.10;;
16892;SDS011;8563;52.242;9.098;2023-03-31T02:43:31;4.50;;;1.00;;
16892;SDS011;8563;52.242;9.098;2023-03-31T02:46:03;3.67;;;1.10;;
16892;SDS011;8563;52.242;9.098;2023-03-31T02:48:36;7.00;;;1.40;;
16892;SDS011;8563;52.242;9.098;2023-03-31T02:57:40;6.53;;;1.20;;
16892;SDS011;8563;52.242;9.098;2023-03-31T03:00:39;6.03;;;1.43;;
16892;SDS011;8563;52.242;9.098;2023-03-31T03:03:25;7.00;;;1.60;;
16892;SDS011;8563;52.242;9.098;2023-03-31T03:06:10;5.77;;;1.50;;
16892;SDS011;8563;52.242;9.098;2023-03-31T03:09:13;3.67;;;1.17;;
16892;SDS011;8563;52.242;9.098;2023-03-31T03:11:59;4.40;;;1.30;;
16892;SDS011;8563;52.242;9.098;2023-03-31T03:14:39;3.17;;;1.00;;
16892;SDS011;8563;52.242;9.098;2023-03-31T03:17:19;7.40;;;1.77;;
16892;SDS011;8563;52.242;9.098;2023-03-31T03:19:58;4.07;;;1.10;;
16892;SDS011;8563;52.242;9.098;2023-03-31T03:22:33;6.90;;;1.50;;
16892;SDS011;8563;52.242;9.098;2023-03-31T03:25:07;4.60;;;1.23;;
16892;SDS011;8563;52.242;9.098;2023-03-31T03:27:41;4.37;;;1.20;;
16892;SDS011;8563;52.242;9.098;2023-03-31T03:30:13;7.37;;;1.57;;
16892;SDS011;8563;52.242;9.098;2023-03-31T03:32:46;4.37;;;1.40;;
16892;SDS011;8563;52.242;9.098;2023-03-31T03:35:19;5.83;;;1.70;;
16892;SDS011;8563;52.242;9.098;2023-03-31T03:37:51;4.70;;;1.30;;
16892;SDS011;8563;52.242;9.098;2023-03-31T03:40:23;4.73;;;1.73;;
16892;SDS011;8563;52.242;9.098;2023-03-31T03:42:55;4.00;;;1.20;;
16892;SDS011;8563;52.242;9.098;2023-03-31T03:45:28;4.57;;;1.73;;
16892;SDS011;8563;52.242;9.098;2023-03-31T03:48:01;3.67;;;1.27;;
16892;SDS011;8563;52.242;9.098;2023-03-31T03:50:34;4.00;;;1.27;;
16892;SDS011;8563;52.242;9.098;2023-03-31T03:53:08;4.13;;;1.20;;
16892;SDS011;8563;52.242;9.098;2023-03-31T03:55:40;5.33;;;1.50;;
16892;SDS011;8563;52.242;9.098;2023-03-31T03:58:12;3.93;;;1.37;;
16892;SDS011;8563;52.242;9.098;2023-03-31T04:00:45;5.83;;;1.40;;
16892;SDS011;8563;52.242;9.098;2023-03-31T04:03:18;4.50;;;1.47;;
16892;SDS011;8563;52.242;9.098;2023-03-31T04:05:50;2.93;;;1.20;;
16892;SDS011;8563;52.242;9.098;2023-03-31T04:08:22;5.57;;;1.23;;
16892;SDS011;8563;52.242;9.098;2023-03-31T04:10:55;5.97;;;1.50;;
16892;SDS011;8563;52.242;9.098;2023-03-31T04:13:27;5.83;;;1.50;;
16892;SDS011;8563;52.242;9.098;2023-03-31T04:15:59;5.20;;;1.67;;
16892;SDS011;8563;52.242;9.098;2023-03-31T04:18:33;6.83;;;1.57;;
16892;SDS011;8563;52.242;9.098;2023-03-31T04:21:06;4.23;;;1.37;;
16892;SDS011;8563;52.242;9.098;2023-03-31T04:23:41;3.43;;;1.10;;
16892;SDS011;8563;52.242;9.098;2023-03-31T04:26:17;4.53;;;1.33;;
16892;SDS011;8563;52.242;9.098;2023-03-31T04:29:00;4.87;;;1.50;;
16892;SDS011;8563;52.242;9.098;2023-03-31T04:31:32;4.03;;;1.17;;
16892;SDS011;8563;52.242;9.098;2023-03-31T04:34:09;4.60;;;1.33;;
16892;SDS011;8563;52.242;9.098;2023-03-31T04:36:44;4.37;;;1.20;;
16892;SDS011;8563;52.242;9.098;2023-03-31T04:39:21;4.93;;;1.57;;
16892;SDS011;8563;52.242;9.098;2023-03-31T04:41:56;5.97;;;1.73;;
16892;SDS011;8563;52.242;9.098;2023-03-31T04:44:30;3.60;;;1.30;;
16892;SDS011;8563;52.242;9.098;2023-03-31T04:47:02;6.77;;;1.53;;
16892;SDS011;8563;52.242;9.098;2023-03-31T04:49:37;4.13;;;1.47;;
16892;SDS011;8563;52.242;9.098;2023-03-31T04:52:09;6.27;;;1.50;;
16892;SDS011;8563;52.242;9.098;2023-03-31T04:54:42;6.10;;;1.50;;
16892;SDS011;8563;52.242;9.098;2023-03-31T04:57:14;6.23;;;1.57;;
16892;SDS011;8563;52.242;9.098;2023-03-31T04:59:46;6.00;;;1.37;;
16892;SDS011;8563;52.242;9.098;2023-03-31T05:02:18;3.70;;;1.20;;
16892;SDS011;8563;52.242;9.098;2023-03-31T05:04:54;6.50;;;1.40;;
16892;SDS011;8563;52.242;9.098;2023-03-31T05:07:26;4.87;;;1.30;;
16892;SDS011;8563;52.242;9.098;2023-03-31T05:09:58;5.37;;;1.30;;
16892;SDS011;8563;52.242;9.098;2023-03-31T05:12:32;7.07;;;1.47;;
16892;SDS011;8563;52.242;9.098;2023-03-31T05:15:05;3.53;;;1.20;;
16892;SDS011;8563;52.242;9.098;2023-03-31T05:17:38;3.73;;;1.40;;
16892;SDS011;8563;52.242;9.098;2023-03-31T05:20:12;2.93;;;1.10;;
16892;SDS011;8563;52.242;9.098;2023-03-31T05:22:45;5.80;;;1.70;;
16892;SDS011;8563;52.242;9.098;2023-03-31T05:25:17;4.63;;;1.40;;
16892;SDS011;8563;52.242;9.098;2023-03-31T05:27:50;3.20;;;1.10;;
16892;SDS011;8563;52.242;9.098;2023-03-31T05:30:22;2.90;;;1.10;;
16892;SDS011;8563;52.242;9.098;2023-03-31T05:32:55;3.50;;;1.43;;
16892;SDS011;8563;52.242;9.098;2023-03-31T05:35:28;3.40;;;1.13;;
16892;SDS011;8563;52.242;9.098;2023-03-31T05:38:01;3.57;;;1.20;;
16892;SDS011;8563;52.242;9.098;2023-03-31T05:40:33;4.30;;;1.30;;
16892;SDS011;8563;52.242;9.098;2023-03-31T05:43:05;2.60;;;0.90;;
16892;SDS011;8563;52.242;9.098;2023-03-31T05:45:37;3.60;;;1.10;;
16892;SDS011;8563;52.242;9.098;2023-03-31T05:48:10;2.97;;;1.00;;
16892;SDS011;8563;52.242;9.098;2023-03-31T05:50:43;3.80;;;1.40;;
16892;SDS011;8563;52.242;9.098;2023-03-31T05:53:15;3.57;;;1.33;;
16892;SDS011;8563;52.242;9.098;2023-03-31T05:55:47;7.77;;;1.60;;
16892;SDS011;8563;52.242;9.098;2023-03-31T05:58:19;4.80;;;1.40;;
16892;SDS011;8563;52.242;9.098;2023-03-31T06:00:59;4.50;;;1.33;;
16892;SDS011;8563;52.242;9.098;2023-03-31T06:03:32;5.17;;;1.60;;
16892;SDS011;8563;52.242;9.098;2023-03-31T06:06:06;5.40;;;1.40;;
16892;SDS011;8563;52.242;9.098;2023-03-31T06:08:42;5.63;;;1.37;;
16892;SDS011;8563;52.242;9.098;2023-03-31T06:11:16;2.73;;;1.10;;
16892;SDS011;8563;52.242;9.098;2023-03-31T06:13:50;5.37;;;1.60;;
16892;SDS011;8563;52.242;9.098;2023-03-31T06:16:22;4.73;;;1.70;;
16892;SDS011;8563;52.242;9.098;2023-03-31T06:18:54;5.17;;;1.80;;
16892;SDS011;8563;52.242;9.098;2023-03-31T06:21:28;5.60;;;1.83;;
16892;SDS011;8563;52.242;9.098;2023-03-31T06:24:01;3.07;;;1.50;;
16892;SDS011;8563;52.242;9.098;2023-03-31T06:26:33;4.83;;;1.67;;
16892;SDS011;8563;52.242;9.098;2023-03-31T06:29:05;3.87;;;1.60;;
16892;SDS011;8563;52.242;9.098;2023-03-31T06:31:37;4.63;;;1.20;;
16892;SDS011;8563;52.242;9.098;2023-03-31T06:34:09;6.90;;;1.63;;
16892;SDS011;8563;52.242;9.098;2023-03-31T06:36:43;4.27;;;1.70;;
16892;SDS011;8563;52.242;9.098;2023-03-31T06:39:15;5.40;;;1.57;;
16892;SDS011;8563;52.242;9.098;2023-03-31T06:41:47;3.73;;;1.27;;
16892;SDS011;8563;52.242;9.098;2023-03-31T06:44:28;3.33;;;1.30;;
16892;SDS011;8563;52.242;9.098;2023-03-31T06:47:00;5.07;;;1.60;;
16892;SDS011;8563;52.242;9.098;2023-03-31T06:49:33;4.27;;;1.43;;
16892;SDS011;8563;52.242;9.098;2023-03-31T06:52:06;5.00;;;1.70;;
16892;SDS011;8563;52.242;9.098;2023-03-31T06:54:38;5.03;;;1.80;;
16892;SDS011;8563;52.242;9.098;2023-03-31T06:57:12;4.43;;;1.57;;
16892;SDS011;8563;52.242;9.098;2023-03-31T06:59:45;5.10;;;1.80;;
16892;SDS011;8563;52.242;9.098;2023-03-31T07:02:17;4.60;;;1.23;;
16892;SDS011;8563;52.242;9.098;2023-03-31T07:04:49;4.03;;;1.60;;
16892;SDS011;8563;52.242;9.098;2023-03-31T07:07:22;4.83;;;1.70;;
16892;SDS011;8563;52.242;9.098;2023-03-31T07:09:55;3.90;;;1.40;;
16892;SDS011;8563;52.242;9.098;2023-03-31T07:12:27;5.77;;;1.30;;
16892;SDS011;8563;52.242;9.098;2023-03-31T07:14:59;6.93;;;1.53;;
16892;SDS011;8563;52.242;9.098;2023-03-31T07:17:31;3.93;;;1.53;;
16892;SDS011;8563;52.242;9.098;2023-03-31T07:20:04;4.70;;;1.40;;
16892;SDS011;8563;52.242;9.098;2023-03-31T07:22:43;5.47;;;1.43;;
16892;SDS011;8563;52.242;9.098;2023-03-31T07:25:16;4.37;;;1.53;;
16892;SDS011;8563;52.242;9.098;2023-03-31T07:27:48;5.73;;;1.80;;
16892;SDS011;8563;52.242;9.098;2023-03-31T07:30:21;5.57;;;1.40;;
16892;SDS011;8563;52.242;9.098;2023-03-31T07:32:53;3.60;;;1.10;;
16892;SDS011;8563;52.242;9.098;2023-03-31T07:35:26;4.27;;;1.40;;
16892;SDS011;8563;52.242;9.098;2023-03-31T07:38:00;3.57;;;1.60;;
16892;SDS011;8563;52.242;9.098;2023-03-31T07:40:32;4.70;;;1.30;;
16892;SDS011;8563;52.242;9.098;2023-03-31T07:43:04;3.57;;;1.57;;
16892;SDS011;8563;52.242;9.098;2023-03-31T07:45:37;3.87;;;1.40;;
16892;SDS011;8563;52.242;9.098;2023-03-31T07:48:10;4.60;;;1.70;;
16892;SDS011;8563;52.242;9.098;2023-03-31T07:50:42;3.93;;;1.67;;
16892;SDS011;8563;52.242;9.098;2023-03-31T07:53:24;3.73;;;1.43;;
16892;SDS011;8563;52.242;9.098;2023-03-31T07:55:56;5.03;;;1.63;;
16892;SDS011;8563;52.242;9.098;2023-03-31T07:58:28;4.10;;;1.43;;
16892;SDS011;8563;52.242;9.098;2023-03-31T08:01:00;5.87;;;1.80;;
16892;SDS011;8563;52.242;9.098;2023-03-31T08:03:32;4.63;;;1.30;;
16892;SDS011;8563;52.242;9.098;2023-03-31T08:06:04;6.80;;;1.53;;
16892;SDS011;8563;52.242;9.098;2023-03-31T08:08:39;3.67;;;1.40;;
16892;SDS011;8563;52.242;9.098;2023-03-31T08:11:12;5.30;;;1.13;;
16892;SDS011;8563;52.242;9.098;2023-03-31T08:13:44;4.07;;;1.27;;
16892;SDS011;8563;52.242;9.098;2023-03-31T08:16:16;3.43;;;1.30;;
16892;SDS011;8563;52.242;9.098;2023-03-31T08:18:49;2.80;;;1.10;;
16892;SDS011;8563;52.242;9.098;2023-03-31T08:21:21;3.47;;;1.37;;
16892;SDS011;8563;52.242;9.098;2023-03-31T08:23:54;3.83;;;1.27;;
16892;SDS011;8563;52.242;9.098;2023-03-31T08:26:27;3.07;;;1.20;;
16892;SDS011;8563;52.242;9.098;2023-03-31T08:29:01;4.10;;;1.20;;
16892;SDS011;8563;52.242;9.098;2023-03-31T08:31:33;4.70;;;1.60;;
16892;SDS011;8563;52.242;9.098;2023-03-31T08:34:05;2.90;;;1.20;;
16892;SDS011;8563;52.242;9.098;2023-03-31T08:36:38;3.47;;;1.17;;
16892;SDS011;8563;52.242;9.098;2023-03-31T08:39:12;3.73;;;1.13;;
16892;SDS011;8563;52.242;9.098;2023-03-31T08:41:46;2.03;;;1.00;;
16892;SDS011;8563;52.242;9.098;2023-03-31T08:44:26;2.77;;;0.90;;
16892;SDS011;8563;52.242;9.098;2023-03-31T08:47:03;3.23;;;1.03;;
16892;SDS011;8563;52.242;9.098;2023-03-31T08:49:40;3.50;;;1.20;;
16892;SDS011;8563;52.242;9.098;2023-03-31T08:52:17;2.97;;;1.00;;
16892;SDS011;8563;52.242;9.098;2023-03-31T08:54:55;2.87;;;1.00;;
16892;SDS011;8563;52.242;9.098;2023-03-31T08:57:31;2.93;;;0.93;;
16892;SDS011;8563;52.242;9.098;2023-03-31T09:00:13;3.90;;;1.33;;
16892;SDS011;8563;52.242;9.098;2023-03-31T09:02:49;4.20;;;1.20;;
16892;SDS011;8563;52.242;9.098;2023-03-31T09:05:39;3.33;;;1.10;;
16892;SDS011;8563;52.242;9.098;2023-03-31T09:08:23;3.13;;;1.00;;
16892;SDS011;8563;52.242;9.098;2023-03-31T09:11:09;2.70;;;1.13;;
16892;SDS011;8563;52.242;9.098;2023-03-31T09:13:52;2.20;;;1.13;;
16892;SDS011;8563;52.242;9.098;2023-03-31T09:16:33;3.03;;;1.37;;
16892;SDS011;8563;52.242;9.098;2023-03-31T09:19:10;1.93;;;1.00;;
16892;SDS011;8563;52.242;9.098;2023-03-31T09:21:48;1.77;;;1.00;;
16892;SDS011;8563;52.242;9.098;2023-03-31T09:24:24;5.10;;;1.40;;
16892;SDS011;8563;52.242;9.098;2023-03-31T09:27:02;3.77;;;1.20;;
16892;SDS011;8563;52.242;9.098;2023-03-31T09:29:40;2.33;;;0.80;;
16892;SDS011;8563;52.242;9.098;2023-03-31T09:32:14;3.97;;;1.50;;
16892;SDS011;8563;52.242;9.098;2023-03-31T09:34:49;2.97;;;1.10;;
16892;SDS011;8563;52.242;9.098;2023-03-31T09:37:24;1.80;;;0.93;;
16892;SDS011;8563;52.242;9.098;2023-03-31T09:39:58;2.93;;;1.00;;
16892;SDS011;8563;52.242;9.098;2023-03-31T09:42:38;2.07;;;1.00;;
16892;SDS011;8563;52.242;9.098;2023-03-31T09:45:14;4.50;;;1.20;;
16892;SDS011;8563;52.242;9.098;2023-03-31T09:47:49;2.93;;;1.20;;
16892;SDS011;8563;52.242;9.098;2023-03-31T09:50:22;4.73;;;1.30;;
16892;SDS011;8563;52.242;9.098;2023-03-31T09:52:56;1.60;;;0.83;;
16892;SDS011;8563;52.242;9.098;2023-03-31T09:55:31;2.90;;;1.10;;
16892;SDS011;8563;52.242;9.098;2023-03-31T09:58:14;4.50;;;0.90;;
16892;SDS011;8563;52.242;9.098;2023-03-31T10:00:55;2.30;;;0.70;;
16892;SDS011;8563;52.242;9.098;2023-03-31T10:03:29;2.63;;;0.90;;
16892;SDS011;8563;52.242;9.098;2023-03-31T10:06:07;2.70;;;0.77;;
16892;SDS011;8563;52.242;9.098;2023-03-31T10:08:40;2.60;;;0.70;;
16892;SDS011;8563;52.242;9.098;2023-03-31T10:11:17;3.63;;;0.97;;
16892;SDS011;8563;52.242;9.098;2023-03-31T10:13:53;3.57;;;1.03;;
16892;SDS011;8563;52.242;9.098;2023-03-31T10:16:32;2.37;;;0.80;;
16892;SDS011;8563;52.242;9.098;2023-03-31T10:19:18;1.87;;;0.67;;
16892;SDS011;8563;52.242;9.098;2023-03-31T10:21:56;1.53;;;0.77;;
16892;SDS011;8563;52.242;9.098;2023-03-31T10:24:35;1.90;;;0.60;;
16892;SDS011;8563;52.242;9.098;2023-03-31T10:27:13;1.37;;;0.63;;
16892;SDS011;8563;52.242;9.098;2023-03-31T10:29:55;3.27;;;0.80;;
16892;SDS011;8563;52.242;9.098;2023-03-31T10:32:29;2.60;;;0.90;;
16892;SDS011;8563;52.242;9.098;2023-03-31T10:35:04;3.57;;;0.87;;
16892;SDS011;8563;52.242;9.098;2023-03-31T10:37:38;1.67;;;0.50;;
16892;SDS011;8563;52.242;9.098;2023-03-31T10:40:12;1.67;;;0.70;;
16892;SDS011;8563;52.242;9.098;2023-03-31T10:42:49;4.47;;;0.90;;
16892;SDS011;8563;52.242;9.098;2023-03-31T10:45:35;2.03;;;0.60;;
16892;SDS011;8563;52.242;9.098;2023-03-31T10:48:16;0.80;;;0.50;;
16892;SDS011;8563;52.242;9.098;2023-03-31T10:50:50;2.77;;;1.80;;
16892;SDS011;8563;52.242;9.098;2023-03-31T10:53:22;4.50;;;2.00;;
16892;SDS011;8563;52.242;9.098;2023-03-31T10:56:00;3.63;;;3.07;;
16892;SDS011;8563;52.242;9.098;2023-03-31T10:58:46;1.90;;;0.90;;
16892;SDS011;8563;52.242;9.098;2023-03-31T11:01:34;3.73;;;0.80;;
16892;SDS011;8563;52.242;9.098;2023-03-31T11:04:19;1.77;;;0.63;;
16892;SDS011;8563;52.242;9.098;2023-03-31T11:07:21;3.33;;;0.80;;
16892;SDS011;8563;52.242;9.098;2023-03-31T11:10:09;1.67;;;0.80;;
16892;SDS011;8563;52.242;9.098;2023-03-31T11:12:59;2.03;;;0.70;;
16892;SDS011;8563;52.242;9.098;2023-03-31T11:15:38;2.57;;;1.00;;
16892;SDS011;8563;52.242;9.098;2023-03-31T11:18:21;1.23;;;0.80;;
16892;SDS011;8563;52.242;9.098;2023-03-31T11:21:09;1.93;;;0.70;;
16892;SDS011;8563;52.242;9.098;2023-03-31T11:23:52;2.10;;;0.80;;
16892;SDS011;8563;52.242;9.098;2023-03-31T11:26:34;2.60;;;0.93;;
16892;SDS011;8563;52.242;9.098;2023-03-31T11:29:17;1.27;;;0.67;;
16892;SDS011;8563;52.242;9.098;2023-03-31T11:35:05;2.37;;;0.80;;
16892;SDS011;8563;52.242;9.098;2023-03-31T11:37:52;1.20;;;0.70;;
16892;SDS011;8563;52.242;9.098;2023-03-31T11:40:36;1.13;;;0.73;;
16892;SDS011;8563;52.242;9.098;2023-03-31T11:43:18;2.97;;;0.77;;
16892;SDS011;8563;52.242;9.098;2023-03-31T11:45:56;1.87;;;0.80;;
16892;SDS011;8563;52.242;9.098;2023-03-31T11:48:34;2.10;;;0.80;;
16892;SDS011;8563;52.242;9.098;2023-03-31T11:51:14;4.47;;;1.23;;
16892;SDS011;8563;52.242;9.098;2023-03-31T11:53:50;2.50;;;1.10;;
16892;SDS011;8563;52.242;9.098;2023-03-31T11:56:27;2.30;;;0.97;;
16892;SDS011;8563;52.242;9.098;2023-03-31T11:59:03;2.20;;;0.93;;
16892;SDS011;8563;52.242;9.098;2023-03-31T12:01:40;1.53;;;0.70;;
16892;SDS011;8563;52.242;9.098;2023-03-31T12:04:22;2.93;;;0.83;;
16892;SDS011;8563;52.242;9.098;2023-03-31T12:07:07;2.60;;;1.07;;
16892;SDS011;8563;52.242;9.098;2023-03-31T12:09:54;2.47;;;1.00;;
16892;SDS011;8563;52.242;9.098;2023-03-31T12:12:35;3.20;;;1.33;;
16892;SDS011;8563;52.242;9.098;2023-03-31T12:15:16;5.90;;;1.13;;
16892;SDS011;8563;52.242;9.098;2023-03-31T12:17:54;3.10;;;1.30;;
16892;SDS011;8563;52.242;9.098;2023-03-31T12:20:31;5.87;;;1.40;;
16892;SDS011;8563;52.242;9.098;2023-03-31T12:23:10;3.70;;;1.10;;
16892;SDS011;8563;52.242;9.098;2023-03-31T12:25:50;2.77;;;1.20;;
16892;SDS011;8563;52.242;9.098;2023-03-31T12:28:25;4.77;;;1.57;;
16892;SDS011;8563;52.242;9.098;2023-03-31T12:30:58;4.43;;;1.43;;
16892;SDS011;8563;52.242;9.098;2023-03-31T12:33:33;3.77;;;1.20;;
16892;SDS011;8563;52.242;9.098;2023-03-31T12:36:13;3.60;;;1.20;;
16892;SDS011;8563;52.242;9.098;2023-03-31T12:39:00;3.33;;;1.30;;
16892;SDS011;8563;52.242;9.098;2023-03-31T12:41:44;5.10;;;1.60;;
16892;SDS011;8563;52.242;9.098;2023-03-31T12:44:33;3.53;;;1.37;;
16892;SDS011;8563;52.242;9.098;2023-03-31T12:47:30;4.70;;;1.40;;
16892;SDS011;8563;52.242;9.098;2023-03-31T12:50:17;4.20;;;1.37;;
16892;SDS011;8563;52.242;9.098;2023-03-31T12:53:10;2.00;;;1.23;;
16892;SDS011;8563;52.242;9.098;2023-03-31T12:55:54;3.43;;;1.10;;
16892;SDS011;8563;52.242;9.098;2023-03-31T12:58:35;3.00;;;1.37;;
16892;SDS011;8563;52.242;9.098;2023-03-31T13:01:13;3.33;;;1.13;;
16892;SDS011;8563;52.242;9.098;2023-03-31T13:03:48;3.37;;;1.30;;
16892;SDS011;8563;52.242;9.098;2023-03-31T13:09:43;4.77;;;1.60;;
16892;SDS011;8563;52.242;9.098;2023-03-31T13:12:18;3.03;;;1.30;;
16892;SDS011;8563;52.242;9.098;2023-03-31T13:14:52;3.00;;;1.30;;
16892;SDS011;8563;52.242;9.098;2023-03-31T13:17:30;7.20;;;1.70;;
16892;SDS011;8563;52.242;9.098;2023-03-31T13:20:15;7.70;;;4.70;;
16892;SDS011;8563;52.242;9.098;2023-03-31T13:23:01;4.23;;;2.00;;
16892;SDS011;8563;52.242;9.098;2023-03-31T13:25:44;5.00;;;2.00;;
16892;SDS011;8563;52.242;9.098;2023-03-31T13:28:30;3.27;;;1.60;;
16892;SDS011;8563;52.242;9.098;2023-03-31T13:31:09;3.70;;;1.77;;
16892;SDS011;8563;52.242;9.098;2023-03-31T13:33:45;6.00;;;1.50;;
16892;SDS011;8563;52.242;9.098;2023-03-31T13:39:38;4.93;;;2.00;;
16892;SDS011;8563;52.242;9.098;2023-03-31T13:42:36;3.33;;;1.40;;
16892;SDS011;8563;52.242;9.098;2023-03-31T13:45:54;4.17;;;1.60;;
16892;SDS011;8563;52.242;9.098;2023-03-31T13:48:43;3.60;;;1.70;;
16892;SDS011;8563;52.242;9.098;2023-03-31T13:51:34;6.17;;;1.70;;
16892;SDS011;8563;52.242;9.098;2023-03-31T13:57:25;4.23;;;1.80;;
16892;SDS011;8563;52.242;9.098;2023-03-31T14:00:13;3.27;;;1.30;;
16892;SDS011;8563;52.242;9.098;2023-03-31T14:03:10;4.20;;;1.60;;
16892;SDS011;8563;52.242;9.098;2023-03-31T14:05:49;4.13;;;1.60;;
16892;SDS011;8563;52.242;9.098;2023-03-31T14:08:31;3.57;;;1.67;;
16892;SDS011;8563;52.242;9.098;2023-03-31T14:11:19;3.53;;;1.50;;
16892;SDS011;8563;52.242;9.098;2023-03-31T14:14:03;4.97;;;1.50;;
16892;SDS011;8563;52.242;9.098;2023-03-31T14:16:37;4.63;;;3.20;;
16892;SDS011;8563;52.242;9.098;2023-03-31T14:22:24;4.67;;;1.90;;
16892;SDS011;8563;52.242;9.098;2023-03-31T14:25:16;5.10;;;1.57;;
16892;SDS011;8563;52.242;9.098;2023-03-31T14:27:58;3.10;;;2.37;;
16892;SDS011;8563;52.242;9.098;2023-03-31T14:30:44;4.90;;;2.07;;
16892;SDS011;8563;52.242;9.098;2023-03-31T14:33:27;6.07;;;2.20;;
16892;SDS011;8563;52.242;9.098;2023-03-31T14:36:07;4.03;;;1.67;;
16892;SDS011;8563;52.242;9.098;2023-03-31T14:38:46;6.03;;;1.70;;
16892;SDS011;8563;52.242;9.098;2023-03-31T14:41:19;5.53;;;1.67;;
16892;SDS011;8563;52.242;9.098;2023-03-31T14:43:59;4.07;;;1.63;;
16892;SDS011;8563;52.242;9.098;2023-03-31T14:46:35;5.20;;;2.10;;
16892;SDS011;8563;52.242;9.098;2023-03-31T14:49:14;4.57;;;1.80;;
16892;SDS011;8563;52.242;9.098;2023-03-31T14:51:50;3.37;;;2.00;;
16892;SDS011;8563;52.242;9.098;2023-03-31T14:54:25;4.10;;;1.70;;
16892;SDS011;8563;52.242;9.098;2023-03-31T14:56:57;6.23;;;1.90;;
16892;SDS011;8563;52.242;9.098;2023-03-31T14:59:31;4.97;;;1.80;;
16892;SDS011;8563;52.242;9.098;2023-03-31T15:02:08;3.93;;;2.00;;
16892;SDS011;8563;52.242;9.098;2023-03-31T15:04:48;5.93;;;1.87;;
16892;SDS011;8563;52.242;9.098;2023-03-31T15:07:21;5.33;;;1.80;;
16892;SDS011;8563;52.242;9.098;2023-03-31T15:09:55;5.97;;;1.90;;
16892;SDS011;8563;52.242;9.098;2023-03-31T15:12:28;4.83;;;1.93;;
16892;SDS011;8563;52.242;9.098;2023-03-31T15:15:01;4.83;;;1.67;;
16892;SDS011;8563;52.242;9.098;2023-03-31T15:17:37;6.07;;;1.47;;
16892;SDS011;8563;52.242;9.098;2023-03-31T15:20:23;3.20;;;1.50;;
16892;SDS011;8563;52.242;9.098;2023-03-31T15:23:00;4.93;;;1.40;;
16892;SDS011;8563;52.242;9.098;2023-03-31T15:25:38;3.27;;;1.47;;
16892;SDS011;8563;52.242;9.098;2023-03-31T15:28:13;5.90;;;1.60;;
16892;SDS011;8563;52.242;9.098;2023-03-31T15:30:48;3.87;;;1.30;;
16892;SDS011;8563;52.242;9.098;2023-03-31T15:33:22;3.43;;;1.37;;
16892;SDS011;8563;52.242;9.098;2023-03-31T15:36:02;3.37;;;1.40;;
16892;SDS011;8563;52.242;9.098;2023-03-31T15:38:34;3.20;;;1.40;;
16892;SDS011;8563;52.242;9.098;2023-03-31T15:41:11;5.67;;;1.50;;
16892;SDS011;8563;52.242;9.098;2023-03-31T15:43:46;6.80;;;2.70;;
16892;SDS011;8563;52.242;9.098;2023-03-31T15:46:23;10.37;;;7.60;;
16892;SDS011;8563;52.242;9.098;2023-03-31T15:49:17;4.73;;;3.50;;
16892;SDS011;8563;52.242;9.098;2023-03-31T15:51:51;8.17;;;6.40;;
16892;SDS011;8563;52.242;9.098;2023-03-31T15:54:27;6.57;;;4.67;;
16892;SDS011;8563;52.242;9.098;2023-03-31T15:57:05;4.73;;;3.37;;
16892;SDS011;8563;52.242;9.098;2023-03-31T15:59:45;5.93;;;2.97;;
16892;SDS011;8563;52.242;9.098;2023-03-31T16:02:19;3.87;;;1.93;;
16892;SDS011;8563;52.242;9.098;2023-03-31T16:04:55;3.53;;;1.50;;
16892;SDS011;8563;52.242;9.098;2023-03-31T16:07:29;4.03;;;1.33;;
16892;SDS011;8563;52.242;9.098;2023-03-31T16:10:05;6.37;;;3.47;;
16892;SDS011;8563;52.242;9.098;2023-03-31T16:12:49;4.87;;;1.57;;
16892;SDS011;8563;52.242;9.098;2023-03-31T16:15:28;6.30;;;2.22;;
16892;SDS011;8563;52.242;9.098;2023-03-31T16:18:04;4.40;;;1.60;;
16892;SDS011;8563;52.242;9.098;2023-03-31T16:20:41;5.10;;;1.80;;
16892;SDS011;8563;52.242;9.098;2023-03-31T16:23:21;3.47;;;1.20;;
16892;SDS011;8563;52.242;9.098;2023-03-31T16:25:55;5.23;;;1.40;;
16892;SDS011;8563;52.242;9.098;2023-03-31T16:28:30;4.30;;;1.50;;
16892;SDS011;8563;52.242;9.098;2023-03-31T16:31:05;4.20;;;1.60;;
16892;SDS011;8563;52.242;9.098;2023-03-31T16:33:59;5.00;;;1.43;;
16892;SDS011;8563;52.242;9.098;2023-03-31T16:36:32;5.10;;;1.60;;